sensor_id;sensor_type;location;lat;lon;timestamp;P1;durP1;ratioP1;P2;durP2;ratioP2
19235;SDS011;9752;54.270;12.470;2023-09-12T00:01:44;65.43;;;47.03;;
19235;SDS011;9752;54.270;12.470;2023-09-12T00:06:46;72.20;;;50.57;;
19235;SDS011;9752;54.270;12.470;2023-09-12T00:11:49;66.33;;;49.40;;
19235;SDS011;9752;54.270;12.470;2023-09-12T00:16:50;67.83;;;52.07;;
19235;SDS011;9752;54.270;12.470;2023-09-12T00:21:55;68.73;;;51.60;;
19235;SDS011;9752;54.270;12.470;2023-09-12T00:26:58;68.57;;;52.70;;
19235;SDS011;9752;54.270;12.470;2023-09-12T00:32:00;68.97;;;49.43;;
19235;SDS011;9752;54.270;12.470;2023-09-12T00:37:01;62.00;;;46.57;;
19235;SDS011;9752;54.270;12.470;2023-09-12T00:42:05;71.30;;;50.73;;
19235;SDS011;9752;54.270;12.470;2023-09-12T00:47:07;69.23;;;50.07;;
19235;SDS011;9752;54.270;12.470;2023-09-12T00:52:12;65.13;;;50.77;;
19235;SDS011;9752;54.270;12.470;2023-09-12T00:57:15;60.50;;;44.90;;
19235;SDS011;9752;54.270;12.470;2023-09-12T01:02:17;66.23;;;48.70;;
19235;SDS011;9752;54.270;12.470;2023-09-12T01:07:20;62.43;;;48.73;;
19235;SDS011;9752;54.270;12.470;2023-09-12T01:12:23;65.37;;;49.00;;
19235;SDS011;9752;54.270;12.470;2023-09-12T01:17:25;59.70;;;43.87;;
19235;SDS011;9752;54.270;12.470;2023-09-12T01:22:34;57.10;;;45.37;;
19235;SDS011;9752;54.270;12.470;2023-09-12T01:27:49;61.50;;;48.77;;
19235;SDS011;9752;54.270;12.470;2023-09-12T01:32:52;58.07;;;43.97;;
19235;SDS011;9752;54.270;12.470;2023-09-12T01:37:55;56.37;;;44.63;;
19235;SDS011;9752;54.270;12.470;2023-09-12T01:42:59;59.63;;;45.63;;
19235;SDS011;9752;54.270;12.470;2023-09-12T01:48:02;53.13;;;42.03;;
19235;SDS011;9752;54.270;12.470;2023-09-12T01:53:07;53.60;;;43.77;;
19235;SDS011;9752;54.270;12.470;2023-09-12T01:58:10;59.63;;;44.03;;
19235;SDS011;9752;54.270;12.470;2023-09-12T02:03:13;54.27;;;43.23;;
19235;SDS011;9752;54.270;12.470;2023-09-12T02:08:14;57.50;;;42.83;;
19235;SDS011;9752;54.270;12.470;2023-09-12T02:13:17;52.53;;;40.20;;
19235;SDS011;9752;54.270;12.470;2023-09-12T02:18:19;54.93;;;41.47;;
19235;SDS011;9752;54.270;12.470;2023-09-12T02:23:21;52.63;;;41.20;;
19235;SDS011;9752;54.270;12.470;2023-09-12T02:28:24;51.90;;;38.17;;
19235;SDS011;9752;54.270;12.470;2023-09-12T02:33:26;53.70;;;38.57;;
19235;SDS011;9752;54.270;12.470;2023-09-12T02:38:28;45.13;;;36.97;;
19235;SDS011;9752;54.270;12.470;2023-09-12T02:43:31;51.33;;;38.23;;
19235;SDS011;9752;54.270;12.470;2023-09-12T02:48:33;53.90;;;38.87;;
19235;SDS011;9752;54.270;12.470;2023-09-12T02:53:34;52.10;;;38.10;;
19235;SDS011;9752;54.270;12.470;2023-09-12T02:58:37;36.47;;;31.93;;
19235;SDS011;9752;54.270;12.470;2023-09-12T03:03:39;48.80;;;36.23;;
19235;SDS011;9752;54.270;12.470;2023-09-12T03:08:41;40.47;;;29.77;;
19235;SDS011;9752;54.270;12.470;2023-09-12T03:13:45;42.47;;;30.13;;
19235;SDS011;9752;54.270;12.470;2023-09-12T03:18:47;45.23;;;28.73;;
19235;SDS011;9752;54.270;12.470;2023-09-12T03:23:49;41.73;;;27.83;;
19235;SDS011;9752;54.270;12.470;2023-09-12T03:28:52;34.90;;;26.93;;
19235;SDS011;9752;54.270;12.470;2023-09-12T03:33:54;37.13;;;27.13;;
19235;SDS011;9752;54.270;12.470;2023-09-12T03:38:56;43.87;;;28.53;;
19235;SDS011;9752;54.270;12.470;2023-09-12T03:43:59;34.97;;;28.93;;
19235;SDS011;9752;54.270;12.470;2023-09-12T03:49:01;37.83;;;27.17;;
19235;SDS011;9752;54.270;12.470;2023-09-12T03:54:03;41.33;;;28.30;;
19235;SDS011;9752;54.270;12.470;2023-09-12T03:59:07;38.30;;;29.17;;
19235;SDS011;9752;54.270;12.470;2023-09-12T04:04:09;46.93;;;31.90;;
19235;SDS011;9752;54.270;12.470;2023-09-12T04:09:10;44.77;;;34.80;;
19235;SDS011;9752;54.270;12.470;2023-09-12T04:14:13;47.50;;;33.77;;
19235;SDS011;9752;54.270;12.470;2023-09-12T04:19:16;49.63;;;35.33;;
19235;SDS011;9752;54.270;12.470;2023-09-12T04:24:17;44.93;;;33.13;;
19235;SDS011;9752;54.270;12.470;2023-09-12T04:29:21;50.53;;;39.60;;
19235;SDS011;9752;54.270;12.470;2023-09-12T04:34:22;52.40;;;39.07;;
19235;SDS011;9752;54.270;12.470;2023-09-12T04:39:24;65.47;;;45.83;;
19235;SDS011;9752;54.270;12.470;2023-09-12T04:44:27;96.87;;;60.67;;
19235;SDS011;9752;54.270;12.470;2023-09-12T04:49:29;170.60;;;94.50;;
19235;SDS011;9752;54.270;12.470;2023-09-12T04:54:31;123.83;;;81.27;;
19235;SDS011;9752;54.270;12.470;2023-09-12T04:59:35;214.53;;;119.63;;
19235;SDS011;9752;54.270;12.470;2023-09-12T05:04:37;261.47;;;127.80;;
19235;SDS011;9752;54.270;12.470;2023-09-12T05:09:38;394.73;;;134.57;;
19235;SDS011;9752;54.270;12.470;2023-09-12T05:14:42;328.93;;;120.67;;
19235;SDS011;9752;54.270;12.470;2023-09-12T05:19:43;332.87;;;119.20;;
19235;SDS011;9752;54.270;12.470;2023-09-12T05:24:45;450.27;;;140.03;;
19235;SDS011;9752;54.270;12.470;2023-09-12T05:29:48;326.67;;;125.83;;
19235;SDS011;9752;54.270;12.470;2023-09-12T05:34:50;293.23;;;121.77;;
19235;SDS011;9752;54.270;12.470;2023-09-12T05:39:52;255.30;;;117.00;;
19235;SDS011;9752;54.270;12.470;2023-09-12T05:44:55;245.17;;;113.03;;
19235;SDS011;9752;54.270;12.470;2023-09-12T05:49:57;215.40;;;104.33;;
19235;SDS011;9752;54.270;12.470;2023-09-12T05:55:00;212.53;;;102.90;;
19235;SDS011;9752;54.270;12.470;2023-09-12T06:00:03;184.30;;;93.80;;
19235;SDS011;9752;54.270;12.470;2023-09-12T06:05:12;172.40;;;89.93;;
19235;SDS011;9752;54.270;12.470;2023-09-12T06:10:14;143.13;;;82.27;;
19235;SDS011;9752;54.270;12.470;2023-09-12T06:15:17;152.20;;;81.50;;
19235;SDS011;9752;54.270;12.470;2023-09-12T06:20:18;126.80;;;73.60;;
19235;SDS011;9752;54.270;12.470;2023-09-12T06:25:20;124.77;;;74.40;;
19235;SDS011;9752;54.270;12.470;2023-09-12T06:30:23;116.03;;;71.77;;
19235;SDS011;9752;54.270;12.470;2023-09-12T06:35:24;93.40;;;60.03;;
19235;SDS011;9752;54.270;12.470;2023-09-12T06:40:26;84.07;;;58.67;;
19235;SDS011;9752;54.270;12.470;2023-09-12T06:45:29;77.60;;;52.80;;
19235;SDS011;9752;54.270;12.470;2023-09-12T06:50:33;73.43;;;49.73;;
19235;SDS011;9752;54.270;12.470;2023-09-12T06:55:34;69.43;;;48.90;;
19235;SDS011;9752;54.270;12.470;2023-09-12T07:00:37;67.63;;;46.43;;
19235;SDS011;9752;54.270;12.470;2023-09-12T07:05:39;74.27;;;49.97;;
19235;SDS011;9752;54.270;12.470;2023-09-12T07:10:43;68.60;;;48.47;;
19235;SDS011;9752;54.270;12.470;2023-09-12T07:15:47;71.67;;;51.77;;
19235;SDS011;9752;54.270;12.470;2023-09-12T07:20:56;61.20;;;44.17;;
19235;SDS011;9752;54.270;12.470;2023-09-12T07:25:58;59.57;;;42.70;;
19235;SDS011;9752;54.270;12.470;2023-09-12T07:31:01;63.63;;;44.67;;
19235;SDS011;9752;54.270;12.470;2023-09-12T07:36:03;61.63;;;45.47;;
19235;SDS011;9752;54.270;12.470;2023-09-12T07:41:05;60.43;;;42.17;;
19235;SDS011;9752;54.270;12.470;2023-09-12T07:46:08;73.37;;;48.07;;
19235;SDS011;9752;54.270;12.470;2023-09-12T07:51:13;72.23;;;48.30;;
19235;SDS011;9752;54.270;12.470;2023-09-12T07:56:17;66.93;;;45.77;;
19235;SDS011;9752;54.270;12.470;2023-09-12T08:01:20;73.90;;;45.17;;
19235;SDS011;9752;54.270;12.470;2023-09-12T08:06:22;60.07;;;43.43;;
19235;SDS011;9752;54.270;12.470;2023-09-12T08:11:25;62.87;;;42.23;;
19235;SDS011;9752;54.270;12.470;2023-09-12T08:16:28;62.87;;;40.67;;
19235;SDS011;9752;54.270;12.470;2023-09-12T08:21:31;60.23;;;39.77;;
19235;SDS011;9752;54.270;12.470;2023-09-12T08:26:33;62.93;;;42.63;;
19235;SDS011;9752;54.270;12.470;2023-09-12T08:31:36;51.03;;;35.57;;
19235;SDS011;9752;54.270;12.470;2023-09-12T08:36:37;45.23;;;34.73;;
19235;SDS011;9752;54.270;12.470;2023-09-12T08:41:39;51.57;;;36.13;;
19235;SDS011;9752;54.270;12.470;2023-09-12T08:46:42;42.77;;;33.00;;
19235;SDS011;9752;54.270;12.470;2023-09-12T08:51:44;47.43;;;34.20;;
19235;SDS011;9752;54.270;12.470;2023-09-12T08:56:46;55.00;;;37.80;;
19235;SDS011;9752;54.270;12.470;2023-09-12T09:01:49;57.17;;;37.93;;
19235;SDS011;9752;54.270;12.470;2023-09-12T09:06:52;53.40;;;33.03;;
19235;SDS011;9752;54.270;12.470;2023-09-12T09:11:55;53.33;;;37.40;;
19235;SDS011;9752;54.270;12.470;2023-09-12T09:16:58;52.90;;;32.27;;
19235;SDS011;9752;54.270;12.470;2023-09-12T09:22:04;46.90;;;32.93;;
19235;SDS011;9752;54.270;12.470;2023-09-12T09:27:07;42.00;;;30.50;;
19235;SDS011;9752;54.270;12.470;2023-09-12T09:32:10;39.67;;;28.60;;
19235;SDS011;9752;54.270;12.470;2023-09-12T09:37:18;36.97;;;26.73;;
19235;SDS011;9752;54.270;12.470;2023-09-12T09:42:20;39.23;;;29.80;;
19235;SDS011;9752;54.270;12.470;2023-09-12T09:47:23;33.10;;;28.27;;
19235;SDS011;9752;54.270;12.470;2023-09-12T09:52:25;28.97;;;25.33;;
19235;SDS011;9752;54.270;12.470;2023-09-12T09:57:27;35.80;;;26.27;;
19235;SDS011;9752;54.270;12.470;2023-09-12T10:02:31;26.17;;;23.00;;
19235;SDS011;9752;54.270;12.470;2023-09-12T10:07:33;24.63;;;21.93;;
19235;SDS011;9752;54.270;12.470;2023-09-12T10:12:39;25.30;;;22.80;;
19235;SDS011;9752;54.270;12.470;2023-09-12T10:17:53;25.57;;;23.00;;
19235;SDS011;9752;54.270;12.470;2023-09-12T10:23:00;26.23;;;23.53;;
19235;SDS011;9752;54.270;12.470;2023-09-12T10:28:08;27.33;;;23.77;;
19235;SDS011;9752;54.270;12.470;2023-09-12T10:33:12;24.70;;;21.40;;
19235;SDS011;9752;54.270;12.470;2023-09-12T10:38:15;25.57;;;22.77;;
19235;SDS011;9752;54.270;12.470;2023-09-12T10:43:19;21.93;;;19.17;;
19235;SDS011;9752;54.270;12.470;2023-09-12T10:48:24;21.60;;;19.40;;
19235;SDS011;9752;54.270;12.470;2023-09-12T10:53:26;20.97;;;18.77;;
19235;SDS011;9752;54.270;12.470;2023-09-12T10:58:28;23.67;;;21.30;;
19235;SDS011;9752;54.270;12.470;2023-09-12T11:03:38;23.67;;;21.20;;
19235;SDS011;9752;54.270;12.470;2023-09-12T11:08:40;21.87;;;19.63;;
19235;SDS011;9752;54.270;12.470;2023-09-12T11:13:42;20.53;;;18.53;;
19235;SDS011;9752;54.270;12.470;2023-09-12T11:19:13;19.03;;;17.23;;
19235;SDS011;9752;54.270;12.470;2023-09-12T11:24:16;19.67;;;17.87;;
19235;SDS011;9752;54.270;12.470;2023-09-12T11:29:18;17.07;;;15.57;;
19235;SDS011;9752;54.270;12.470;2023-09-12T11:34:21;17.30;;;15.63;;
19235;SDS011;9752;54.270;12.470;2023-09-12T11:39:27;18.13;;;16.33;;
19235;SDS011;9752;54.270;12.470;2023-09-12T11:44:30;19.70;;;17.50;;
19235;SDS011;9752;54.270;12.470;2023-09-12T11:49:36;20.13;;;18.13;;
19235;SDS011;9752;54.270;12.470;2023-09-12T11:54:38;20.67;;;18.67;;
19235;SDS011;9752;54.270;12.470;2023-09-12T11:59:41;21.40;;;19.00;;
19235;SDS011;9752;54.270;12.470;2023-09-12T12:04:46;23.40;;;20.20;;
19235;SDS011;9752;54.270;12.470;2023-09-12T12:09:48;22.13;;;19.73;;
19235;SDS011;9752;54.270;12.470;2023-09-12T12:14:50;24.53;;;21.83;;
19235;SDS011;9752;54.270;12.470;2023-09-12T12:19:53;24.73;;;21.27;;
19235;SDS011;9752;54.270;12.470;2023-09-12T12:24:57;26.70;;;23.53;;
19235;SDS011;9752;54.270;12.470;2023-09-12T12:30:07;29.87;;;26.47;;
19235;SDS011;9752;54.270;12.470;2023-09-12T12:35:16;30.37;;;26.30;;
19235;SDS011;9752;54.270;12.470;2023-09-12T12:40:19;25.70;;;23.07;;
19235;SDS011;9752;54.270;12.470;2023-09-12T12:45:21;26.97;;;22.80;;
19235;SDS011;9752;54.270;12.470;2023-09-12T12:50:25;22.63;;;20.60;;
19235;SDS011;9752;54.270;12.470;2023-09-12T12:55:27;24.10;;;21.67;;
19235;SDS011;9752;54.270;12.470;2023-09-12T13:00:29;21.43;;;19.30;;
19235;SDS011;9752;54.270;12.470;2023-09-12T13:05:32;20.10;;;18.23;;
19235;SDS011;9752;54.270;12.470;2023-09-12T13:10:33;20.17;;;18.07;;
19235;SDS011;9752;54.270;12.470;2023-09-12T13:15:35;19.80;;;17.90;;
19235;SDS011;9752;54.270;12.470;2023-09-12T13:20:38;20.37;;;16.40;;
19235;SDS011;9752;54.270;12.470;2023-09-12T13:25:40;17.73;;;16.07;;
19235;SDS011;9752;54.270;12.470;2023-09-12T13:30:41;19.33;;;17.63;;
19235;SDS011;9752;54.270;12.470;2023-09-12T13:35:46;19.63;;;18.00;;
19235;SDS011;9752;54.270;12.470;2023-09-12T13:40:47;21.17;;;19.27;;
19235;SDS011;9752;54.270;12.470;2023-09-12T13:45:49;19.63;;;17.63;;
19235;SDS011;9752;54.270;12.470;2023-09-12T13:50:52;18.23;;;16.53;;
19235;SDS011;9752;54.270;12.470;2023-09-12T13:55:54;20.73;;;18.73;;
19235;SDS011;9752;54.270;12.470;2023-09-12T14:00:57;22.37;;;20.10;;
19235;SDS011;9752;54.270;12.470;2023-09-12T14:06:00;22.37;;;19.33;;
19235;SDS011;9752;54.270;12.470;2023-09-12T14:11:01;19.77;;;17.70;;
19235;SDS011;9752;54.270;12.470;2023-09-12T14:16:03;19.57;;;17.63;;
19235;SDS011;9752;54.270;12.470;2023-09-12T14:21:06;18.63;;;17.03;;
19235;SDS011;9752;54.270;12.470;2023-09-12T14:26:08;19.10;;;17.33;;
19235;SDS011;9752;54.270;12.470;2023-09-12T14:31:10;21.27;;;19.33;;
19235;SDS011;9752;54.270;12.470;2023-09-12T14:36:15;19.20;;;17.17;;
19235;SDS011;9752;54.270;12.470;2023-09-12T14:41:17;20.17;;;18.27;;
19235;SDS011;9752;54.270;12.470;2023-09-12T14:46:19;20.03;;;18.23;;
19235;SDS011;9752;54.270;12.470;2023-09-12T14:51:22;19.50;;;17.80;;
19235;SDS011;9752;54.270;12.470;2023-09-12T14:56:25;21.07;;;19.07;;
19235;SDS011;9752;54.270;12.470;2023-09-12T15:01:26;19.43;;;17.63;;
19235;SDS011;9752;54.270;12.470;2023-09-12T15:06:29;20.37;;;18.57;;
19235;SDS011;9752;54.270;12.470;2023-09-12T15:11:33;20.47;;;18.47;;
19235;SDS011;9752;54.270;12.470;2023-09-12T15:16:34;19.70;;;17.63;;
19235;SDS011;9752;54.270;12.470;2023-09-12T15:21:37;21.27;;;18.13;;
19235;SDS011;9752;54.270;12.470;2023-09-12T15:26:39;23.33;;;20.97;;
19235;SDS011;9752;54.270;12.470;2023-09-12T15:31:41;19.57;;;17.57;;
19235;SDS011;9752;54.270;12.470;2023-09-12T15:36:44;19.97;;;16.77;;
19235;SDS011;9752;54.270;12.470;2023-09-12T15:41:47;24.93;;;19.37;;
19235;SDS011;9752;54.270;12.470;2023-09-12T15:46:48;24.50;;;21.17;;
19235;SDS011;9752;54.270;12.470;2023-09-12T15:51:51;24.97;;;22.17;;
19235;SDS011;9752;54.270;12.470;2023-09-12T15:56:53;25.97;;;20.67;;
19235;SDS011;9752;54.270;12.470;2023-09-12T16:01:55;25.33;;;22.37;;
19235;SDS011;9752;54.270;12.470;2023-09-12T16:06:58;35.53;;;26.87;;
19235;SDS011;9752;54.270;12.470;2023-09-12T16:12:00;33.73;;;25.83;;
19235;SDS011;9752;54.270;12.470;2023-09-12T16:17:01;39.53;;;29.20;;
19235;SDS011;9752;54.270;12.470;2023-09-12T16:22:04;31.00;;;26.83;;
19235;SDS011;9752;54.270;12.470;2023-09-12T16:27:07;34.20;;;27.57;;
19235;SDS011;9752;54.270;12.470;2023-09-12T16:32:09;33.10;;;26.83;;
19235;SDS011;9752;54.270;12.470;2023-09-12T16:37:12;33.17;;;25.80;;
19235;SDS011;9752;54.270;12.470;2023-09-12T16:42:14;37.57;;;27.80;;
19235;SDS011;9752;54.270;12.470;2023-09-12T16:47:15;37.63;;;28.47;;
19235;SDS011;9752;54.270;12.470;2023-09-12T16:52:18;38.70;;;29.87;;
19235;SDS011;9752;54.270;12.470;2023-09-12T16:57:20;29.97;;;23.27;;
19235;SDS011;9752;54.270;12.470;2023-09-12T17:02:22;31.53;;;26.07;;
19235;SDS011;9752;54.270;12.470;2023-09-12T17:07:27;39.83;;;26.63;;
19235;SDS011;9752;54.270;12.470;2023-09-12T17:12:28;35.60;;;27.37;;
19235;SDS011;9752;54.270;12.470;2023-09-12T17:17:30;37.13;;;28.53;;
19235;SDS011;9752;54.270;12.470;2023-09-12T17:22:33;34.53;;;28.50;;
19235;SDS011;9752;54.270;12.470;2023-09-12T17:27:35;32.20;;;26.10;;
19235;SDS011;9752;54.270;12.470;2023-09-12T17:32:38;38.63;;;29.10;;
19235;SDS011;9752;54.270;12.470;2023-09-12T17:37:41;33.83;;;27.53;;
19235;SDS011;9752;54.270;12.470;2023-09-12T17:42:42;45.43;;;30.60;;
19235;SDS011;9752;54.270;12.470;2023-09-12T17:47:44;42.53;;;30.37;;
19235;SDS011;9752;54.270;12.470;2023-09-12T17:52:47;41.93;;;31.17;;
19235;SDS011;9752;54.270;12.470;2023-09-12T17:57:49;46.03;;;27.97;;
19235;SDS011;9752;54.270;12.470;2023-09-12T18:02:51;39.67;;;30.33;;
19235;SDS011;9752;54.270;12.470;2023-09-12T18:07:54;40.93;;;30.63;;
19235;SDS011;9752;54.270;12.470;2023-09-12T18:12:56;44.77;;;33.17;;
19235;SDS011;9752;54.270;12.470;2023-09-12T18:17:58;43.83;;;32.50;;
19235;SDS011;9752;54.270;12.470;2023-09-12T18:23:01;49.97;;;35.27;;
19235;SDS011;9752;54.270;12.470;2023-09-12T18:28:04;50.43;;;34.43;;
19235;SDS011;9752;54.270;12.470;2023-09-12T18:33:06;53.30;;;33.80;;
19235;SDS011;9752;54.270;12.470;2023-09-12T18:38:09;60.83;;;38.07;;
19235;SDS011;9752;54.270;12.470;2023-09-12T18:43:10;57.83;;;37.50;;
19235;SDS011;9752;54.270;12.470;2023-09-12T18:48:12;54.17;;;35.30;;
19235;SDS011;9752;54.270;12.470;2023-09-12T18:53:16;57.57;;;36.93;;
19235;SDS011;9752;54.270;12.470;2023-09-12T18:58:18;62.60;;;39.03;;
19235;SDS011;9752;54.270;12.470;2023-09-12T19:03:19;59.87;;;36.87;;
19235;SDS011;9752;54.270;12.470;2023-09-12T19:08:22;55.63;;;34.40;;
19235;SDS011;9752;54.270;12.470;2023-09-12T19:13:24;59.70;;;37.00;;
19235;SDS011;9752;54.270;12.470;2023-09-12T19:18:25;42.60;;;27.97;;
19235;SDS011;9752;54.270;12.470;2023-09-12T19:23:28;63.17;;;38.60;;
19235;SDS011;9752;54.270;12.470;2023-09-12T19:28:30;58.50;;;37.73;;
19235;SDS011;9752;54.270;12.470;2023-09-12T19:33:32;65.90;;;37.73;;
19235;SDS011;9752;54.270;12.470;2023-09-12T19:38:35;57.73;;;36.47;;
19235;SDS011;9752;54.270;12.470;2023-09-12T19:43:37;51.60;;;31.93;;
19235;SDS011;9752;54.270;12.470;2023-09-12T19:48:39;56.50;;;36.10;;
19235;SDS011;9752;54.270;12.470;2023-09-12T19:53:42;59.63;;;36.03;;
19235;SDS011;9752;54.270;12.470;2023-09-12T19:58:43;57.93;;;35.10;;
19235;SDS011;9752;54.270;12.470;2023-09-12T20:03:45;53.37;;;33.77;;
19235;SDS011;9752;54.270;12.470;2023-09-12T20:08:48;58.43;;;35.37;;
19235;SDS011;9752;54.270;12.470;2023-09-12T20:13:50;174.50;;;51.30;;
19235;SDS011;9752;54.270;12.470;2023-09-12T20:18:51;61.50;;;33.40;;
19235;SDS011;9752;54.270;12.470;2023-09-12T20:23:54;288.70;;;66.47;;
19235;SDS011;9752;54.270;12.470;2023-09-12T20:28:56;72.60;;;40.27;;
19235;SDS011;9752;54.270;12.470;2023-09-12T20:33:58;74.43;;;40.90;;
19235;SDS011;9752;54.270;12.470;2023-09-12T20:44:24;78.10;;;41.70;;
19235;SDS011;9752;54.270;12.470;2023-09-12T20:49:26;71.73;;;39.40;;
19235;SDS011;9752;54.270;12.470;2023-09-12T20:54:31;110.20;;;48.20;;
19235;SDS011;9752;54.270;12.470;2023-09-12T20:59:33;72.50;;;37.90;;
19235;SDS011;9752;54.270;12.470;2023-09-12T21:04:34;74.80;;;41.00;;
19235;SDS011;9752;54.270;12.470;2023-09-12T21:09:38;60.60;;;37.00;;
19235;SDS011;9752;54.270;12.470;2023-09-12T21:14:40;65.63;;;37.03;;
19235;SDS011;9752;54.270;12.470;2023-09-12T21:19:42;75.33;;;41.53;;
19235;SDS011;9752;54.270;12.470;2023-09-12T21:24:45;268.13;;;65.83;;
19235;SDS011;9752;54.270;12.470;2023-09-12T21:29:46;64.30;;;36.97;;
19235;SDS011;9752;54.270;12.470;2023-09-12T21:34:48;98.57;;;46.83;;
19235;SDS011;9752;54.270;12.470;2023-09-12T21:39:51;165.93;;;51.80;;
19235;SDS011;9752;54.270;12.470;2023-09-12T21:44:53;78.03;;;41.40;;
19235;SDS011;9752;54.270;12.470;2023-09-12T21:49:54;89.20;;;40.27;;
19235;SDS011;9752;54.270;12.470;2023-09-12T21:54:57;103.20;;;45.57;;
19235;SDS011;9752;54.270;12.470;2023-09-12T21:59:59;74.53;;;40.77;;
19235;SDS011;9752;54.270;12.470;2023-09-12T22:05:18;71.43;;;38.80;;
19235;SDS011;9752;54.270;12.470;2023-09-12T22:10:22;127.93;;;48.93;;
19235;SDS011;9752;54.270;12.470;2023-09-12T22:15:23;73.33;;;41.70;;
19235;SDS011;9752;54.270;12.470;2023-09-12T22:20:25;56.37;;;35.20;;
19235;SDS011;9752;54.270;12.470;2023-09-12T22:25:28;147.13;;;52.37;;
19235;SDS011;9752;54.270;12.470;2023-09-12T22:30:30;172.13;;;56.30;;
19235;SDS011;9752;54.270;12.470;2023-09-12T22:35:31;82.10;;;42.00;;
19235;SDS011;9752;54.270;12.470;2023-09-12T22:40:34;104.17;;;40.60;;
19235;SDS011;9752;54.270;12.470;2023-09-12T22:45:36;164.33;;;52.03;;
19235;SDS011;9752;54.270;12.470;2023-09-12T22:50:38;83.00;;;37.97;;
19235;SDS011;9752;54.270;12.470;2023-09-12T22:55:44;77.87;;;37.50;;
19235;SDS011;9752;54.270;12.470;2023-09-12T23:00:46;127.37;;;39.57;;
19235;SDS011;9752;54.270;12.470;2023-09-12T23:05:47;78.83;;;36.67;;
19235;SDS011;9752;54.270;12.470;2023-09-12T23:10:50;77.47;;;37.43;;
19235;SDS011;9752;54.270;12.470;2023-09-12T23:15:52;270.60;;;59.97;;
19235;SDS011;9752;54.270;12.470;2023-09-12T23:20:54;101.53;;;42.07;;
19235;SDS011;9752;54.270;12.470;2023-09-12T23:25:57;111.60;;;47.33;;
19235;SDS011;9752;54.270;12.470;2023-09-12T23:30:59;89.53;;;40.00;;
19235;SDS011;9752;54.270;12.470;2023-09-12T23:36:00;204.17;;;55.37;;
19235;SDS011;9752;54.270;12.470;2023-09-12T23:41:03;196.70;;;48.17;;
19235;SDS011;9752;54.270;12.470;2023-09-12T23:46:05;83.47;;;39.23;;
19235;SDS011;9752;54.270;12.470;2023-09-12T23:51:07;56.40;;;34.33;;
19235;SDS011;9752;54.270;12.470;2023-09-12T23:56:10;69.13;;;39.10;;
